Strona główna
METAR-TAF:

METAR-TAF

Lotnisko :

Pembrey, Walia

Szerokość geograficzna: 51-43N, Długość geograficzna: 004-22W, wysokość: 3 m

Aktualna obserwacja pogody

Raport powstał 52 minut temu, godzina 07:50 UTC
Wiatr 12 kt od południowo-południowy zachód
Temperatura 18°C
Wilgotność 83%
Ciśnienie 1019 hPa
Widzialność 10 km lub więcej

METAR: EGOP 210750Z AUTO 21012KT 9999 // OVC050/// 18/15 Q1019

czas: 09:42 (08:42 UTC)


TAF: brakujący

Obserwacja i prognoza pogody dla ponad 4000 lotnisk (raport METAR i TAF).

Dostępne stacje oznaczono żółtymi i czerwonymi punktami na mapie.

Najedź kursorem aby zobaczyć nazwę stacji.

Kliknij aby zobaczyć obserwacje i prognozy pogody.

Aby zmienić mapę: kliknij na zielony przycisk z czarnym krzyżykiem, aby powiększyć; na zielony przycisk z myślnikiem, aby pomniejszyć; na zielone strzałki, aby przejść do map sąsiednich.


METAR-TAF: